Time;durP1;ratioP1;P1;durP2;ratioP2;P2;SDS_P1;SDS_P2;PMS_P1;PMS_P2;Temp;Humidity;BMP_temperature;BMP_pressure;BME280_temperature;BME280_humidity;BME280_pressure;Samples;Min_cycle;Max_cycle;Signal;HPM_P1;HPM_P2
2022/05/16 00:01:51;;;;;;;1999.90;999.90;;;16.10;99.90;;;;;;4918731;29;20025;-82
2022/05/16 00:04:17;;;;;;;1999.90;999.90;;;16.10;99.90;;;;;;4918545;29;20427;-82
2022/05/16 00:06:43;;;;;;;1999.90;999.90;;;16.10;99.90;;;;;;4918328;29;20028;-80
2022/05/16 00:09:08;;;;;;;1999.90;999.90;;;16.10;99.90;;;;;;4918297;29;20036;-77
2022/05/16 00:11:35;;;;;;;1999.90;999.90;;;16.00;99.90;;;;;;4918263;29;20074;-78
2022/05/16 00:14:01;;;;;;;1999.90;999.90;;;16.10;99.90;;;;;;4916952;29;20036;-77
2022/05/16 00:16:27;;;;;;;1999.90;999.90;;;16.10;99.90;;;;;;4917585;29;20102;-78
2022/05/16 00:18:52;;;;;;;1999.90;999.90;;;16.10;99.90;;;;;;4917835;29;20020;-82
2022/05/16 00:21:19;;;;;;;1999.90;999.90;;;16.20;99.90;;;;;;4916944;29;20067;-81
2022/05/16 00:23:45;;;;;;;1999.90;999.90;;;16.30;99.90;;;;;;4917515;29;20039;-78
2022/05/16 00:26:13;;;;;;;1999.90;999.90;;;16.40;99.90;;;;;;4905440;29;20047;-77
2022/05/16 00:28:39;;;;;;;1999.90;999.90;;;16.50;99.90;;;;;;4922648;29;20028;-77
2022/05/16 00:31:05;;;;;;;1999.90;999.90;;;16.70;99.90;;;;;;4917616;29;20047;-82
2022/05/16 00:33:32;;;;;;;1999.90;999.90;;;16.80;99.90;;;;;;4916346;29;20518;-78
2022/05/16 00:35:57;;;;;;;1999.90;999.90;;;17.00;99.90;;;;;;4917572;29;20506;-77
2022/05/16 00:38:23;;;;;;;1999.90;999.90;;;17.10;99.90;;;;;;4927122;29;20032;-78
2022/05/16 00:40:49;;;;;;;1999.90;999.90;;;17.20;99.90;;;;;;4917573;29;20373;-77
2022/05/16 00:43:24;;;;;;;1999.90;999.90;;;17.30;99.90;;;;;;4922027;29;20403;-77
2022/05/16 00:45:50;;;;;;;1999.90;999.90;;;17.40;99.90;;;;;;4906101;29;20020;-77
2022/05/16 00:48:16;;;;;;;1999.90;999.90;;;17.40;99.90;;;;;;4922855;29;20027;-77
2022/05/16 00:50:42;;;;;;;1999.90;999.90;;;17.40;99.90;;;;;;4928917;29;20119;-77
2022/05/16 00:53:09;;;;;;;1999.90;999.90;;;17.40;99.90;;;;;;4917977;29;20068;-82
2022/05/16 00:55:37;;;;;;;1999.90;999.90;;;17.30;99.90;;;;;;4915899;29;20139;-82
2022/05/16 00:58:16;;;;;;;1999.90;999.90;;;17.20;99.90;;;;;;4916838;29;20020;-78
2022/05/16 01:00:44;;;;;;;1999.90;999.90;;;17.20;99.90;;;;;;4908285;29;20021;-77
2022/05/16 01:05:59;;;;;;;1999.90;999.90;;;17.00;99.90;;;;;;4917531;29;20124;-78
2022/05/16 01:08:26;;;;;;;1999.90;999.90;;;17.00;99.90;;;;;;4916755;29;20513;-82
2022/05/16 01:10:56;;;;;;;1999.90;999.90;;;16.90;99.90;;;;;;4916872;29;20027;-77
2022/05/16 01:13:30;;;;;;;1999.90;999.90;;;16.90;99.90;;;;;;4915835;29;20415;-82
2022/05/16 01:15:57;;;;;;;1999.90;999.90;;;16.90;99.90;;;;;;4916783;29;20055;-83
2022/05/16 01:18:24;;;;;;;1999.90;999.90;;;16.80;99.90;;;;;;4913141;29;20115;-82
2022/05/16 01:21:19;;;;;;;1999.90;999.90;;;16.90;99.90;;;;;;4911797;29;20111;-77
2022/05/16 01:24:06;;;;;;;1999.90;999.90;;;16.90;99.90;;;;;;4917128;29;20096;-78
2022/05/16 01:26:33;;;;;;;1999.90;999.90;;;16.90;99.90;;;;;;4905718;29;20039;-83
2022/05/16 01:28:59;;;;;;;1999.90;999.90;;;16.80;99.90;;;;;;4920721;29;20032;-78
2022/05/16 01:31:25;;;;;;;1999.90;999.90;;;16.90;99.90;;;;;;4916715;29;20423;-77
2022/05/16 01:33:51;;;;;;;1999.90;999.90;;;16.80;99.90;;;;;;4916462;29;20138;-78
2022/05/16 01:36:17;;;;;;;1999.90;999.90;;;16.80;99.90;;;;;;4909291;29;20032;-77
2022/05/16 01:38:45;;;;;;;1999.90;999.90;;;16.90;99.90;;;;;;4922515;29;20490;-77
2022/05/16 01:41:17;;;;;;;1999.90;999.90;;;16.80;99.90;;;;;;4912020;29;20048;-77
2022/05/16 01:43:46;;;;;;;1999.90;999.90;;;16.80;99.90;;;;;;4917602;29;20099;-77
2022/05/16 01:46:16;;;;;;;1999.90;999.90;;;16.80;99.90;;;;;;4917073;29;20052;-77
2022/05/16 01:48:43;;;;;;;1999.90;999.90;;;16.80;99.90;;;;;;4922226;29;20103;-81
2022/05/16 01:51:10;;;;;;;1999.90;999.90;;;16.80;99.90;;;;;;4915561;29;20088;-77
2022/05/16 01:53:37;;;;;;;1999.90;999.90;;;16.80;99.90;;;;;;4918498;29;20036;-82
2022/05/16 01:56:03;;;;;;;1999.90;999.90;;;16.80;99.90;;;;;;4928127;29;20047;-78
2022/05/16 01:58:29;;;;;;;1999.90;999.90;;;16.80;99.90;;;;;;4920347;29;20111;-82
2022/05/16 02:00:55;;;;;;;1999.90;999.90;;;16.80;99.90;;;;;;4920595;29;20159;-78
2022/05/16 02:03:21;;;;;;;1999.90;999.90;;;16.80;99.90;;;;;;4920379;29;20024;-78
2022/05/16 02:05:47;;;;;;;1999.90;999.90;;;16.80;99.90;;;;;;4919238;29;20024;-78
2022/05/16 02:08:14;;;;;;;1999.90;999.90;;;16.80;99.90;;;;;;4915050;29;20514;-78
2022/05/16 02:10:41;;;;;;;1999.90;999.90;;;16.80;99.90;;;;;;4912976;29;20035;-77
2022/05/16 02:13:08;;;;;;;1999.90;999.90;;;16.70;99.90;;;;;;4920099;29;20043;-82
2022/05/16 02:15:36;;;;;;;1999.90;999.90;;;16.80;99.90;;;;;;4917533;29;20031;-78
2022/05/16 02:18:03;;;;;;;1999.90;999.90;;;16.70;99.90;;;;;;4919408;29;20039;-78
2022/05/16 02:20:29;;;;;;;1999.90;999.90;;;16.70;99.90;;;;;;4919178;29;20110;-78
2022/05/16 02:25:46;;;;;;;1999.90;999.90;;;16.60;99.90;;;;;;4920421;29;20083;-77
2022/05/16 02:28:16;;;;;;;1999.90;999.90;;;16.50;99.90;;;;;;4925321;29;20110;-77
2022/05/16 02:30:43;;;;;;;1999.90;999.90;;;16.30;99.90;;;;;;4919909;29;20567;-77
2022/05/16 02:33:10;;;;;;;1999.90;999.90;;;16.20;99.90;;;;;;4915554;29;20385;-77
2022/05/16 02:35:36;;;;;;;1999.90;999.90;;;16.00;99.90;;;;;;4932010;29;20123;-77
2022/05/16 02:38:03;;;;;;;1999.90;999.90;;;15.90;99.90;;;;;;4925646;29;20475;-77
2022/05/16 02:40:31;;;;;;;1999.90;999.90;;;15.80;99.90;;;;;;4921779;29;20035;-78
2022/05/16 02:42:56;;;;;;;1999.90;999.90;;;15.70;99.90;;;;;;4923482;29;20016;-77
2022/05/16 02:45:23;;;;;;;1999.90;999.90;;;15.60;99.90;;;;;;4920703;29;20109;-82
2022/05/16 02:47:49;;;;;;;1999.90;999.90;;;15.60;99.90;;;;;;4922143;29;20024;-78
2022/05/16 02:50:23;;;;;;;1999.90;999.90;;;15.50;99.90;;;;;;4922100;29;20063;-77
2022/05/16 02:52:52;;;;;;;1999.90;999.90;;;15.50;99.90;;;;;;4919759;29;20028;-77
2022/05/16 02:55:18;;;;;;;1999.90;999.90;;;15.50;99.90;;;;;;4918263;29;20052;-77
2022/05/16 02:57:44;;;;;;;1999.90;999.90;;;15.40;99.90;;;;;;4918558;29;20440;-80
2022/05/16 03:00:12;;;;;;;1999.90;999.90;;;15.40;99.90;;;;;;4918121;29;20075;-77
2022/05/16 03:02:39;;;;;;;1999.90;999.90;;;15.40;99.90;;;;;;4919492;29;20088;-77
2022/05/16 03:05:06;;;;;;;1999.90;999.90;;;15.40;99.90;;;;;;4914247;29;20024;-77
2022/05/16 03:07:32;;;;;;;1999.90;999.90;;;15.40;99.90;;;;;;4908905;29;20031;-77
2022/05/16 03:09:58;;;;;;;1999.90;999.90;;;15.50;99.90;;;;;;4918354;29;20472;-82
2022/05/16 03:12:24;;;;;;;1999.90;999.90;;;15.50;99.90;;;;;;4919196;29;20020;-82
2022/05/16 03:14:49;;;;;;;1999.90;999.90;;;15.60;99.90;;;;;;4918898;29;20028;-77
2022/05/16 03:17:15;;;;;;;1999.90;999.90;;;15.60;99.90;;;;;;4917644;29;20032;-77
2022/05/16 03:19:41;;;;;;;1999.90;999.90;;;15.70;99.90;;;;;;4918734;29;20024;-82
2022/05/16 03:22:06;;;;;;;1999.90;999.90;;;15.70;99.90;;;;;;4918050;29;20024;-77
2022/05/16 03:24:33;;;;;;;1999.90;999.90;;;15.60;99.90;;;;;;4917557;29;20523;-82
2022/05/16 03:27:00;;;;;;;1999.90;999.90;;;15.70;99.90;;;;;;4923731;29;20027;-77
2022/05/16 03:29:25;;;;;;;1999.90;999.90;;;15.70;99.90;;;;;;4917707;29;20032;-77
2022/05/16 03:31:51;;;;;;;1999.90;999.90;;;15.60;99.90;;;;;;4917688;29;20488;-77
2022/05/16 03:34:17;;;;;;;1999.90;999.90;;;15.70;99.90;;;;;;4918878;29;20028;-77
2022/05/16 03:36:43;;;;;;;1999.90;999.90;;;15.70;99.90;;;;;;4917544;29;20447;-80
2022/05/16 03:41:53;;;;;;;1999.90;999.90;;;15.70;99.90;;;;;;4920534;29;20406;-77
2022/05/16 03:44:20;;;;;;;1999.90;999.90;;;15.80;99.90;;;;;;4919575;29;20028;-77
2022/05/16 03:46:46;;;;;;;1999.90;999.90;;;15.80;99.90;;;;;;4918494;29;20024;-77
2022/05/16 03:49:12;;;;;;;1999.90;999.90;;;15.70;99.90;;;;;;4924326;29;20040;-77
2022/05/16 03:51:38;;;;;;;1999.90;999.90;;;15.70;99.90;;;;;;4918599;29;20458;-77
2022/05/16 03:54:04;;;;;;;1999.90;999.90;;;15.80;99.90;;;;;;4917512;29;20507;-82
2022/05/16 03:56:30;;;;;;;1999.90;999.90;;;15.70;99.90;;;;;;4918180;29;20048;-77
2022/05/16 03:58:57;;;;;;;1999.90;999.90;;;15.70;99.90;;;;;;4917680;29;20034;-82
2022/05/16 04:01:27;;;;;;;1999.90;999.90;;;15.70;99.90;;;;;;4918885;29;20028;-82
2022/05/16 04:03:53;;;;;;;1999.90;999.90;;;15.60;99.90;;;;;;4917902;29;20428;-77
2022/05/16 04:06:19;;;;;;;1999.90;999.90;;;15.60;99.90;;;;;;4917960;29;20458;-77
2022/05/16 04:08:46;;;;;;;1999.90;999.90;;;15.60;99.90;;;;;;4914238;29;20043;-77
2022/05/16 04:11:15;;;;;;;1999.90;999.90;;;15.60;99.90;;;;;;4915280;29;20032;-77
2022/05/16 04:13:41;;;;;;;1999.90;999.90;;;15.60;99.90;;;;;;4917807;29;20052;-77
2022/05/16 04:16:07;;;;;;;1999.90;999.90;;;15.60;99.90;;;;;;4915134;29;20435;-82
2022/05/16 04:18:34;;;;;;;1999.90;999.90;;;15.60;99.90;;;;;;4917141;29;20028;-77
2022/05/16 04:21:00;;;;;;;1999.90;999.90;;;15.70;99.90;;;;;;4905325;29;20024;-82
2022/05/16 04:23:26;;;;;;;1999.90;999.90;;;15.60;99.90;;;;;;4918146;29;20484;-79
2022/05/16 04:25:52;;;;;;;1999.90;999.90;;;15.60;99.90;;;;;;4916863;29;20026;-77
2022/05/16 04:28:18;;;;;;;1999.90;999.90;;;15.50;99.90;;;;;;4922722;29;20103;-77
2022/05/16 04:30:46;;;;;;;1999.90;999.90;;;15.50;99.90;;;;;;4918010;29;20407;-77
2022/05/16 04:33:12;;;;;;;1999.90;999.90;;;15.50;99.90;;;;;;4918018;29;20115;-77
2022/05/16 04:35:38;;;;;;;1999.90;999.90;;;15.50;99.90;;;;;;4917568;29;20436;-78
2022/05/16 04:38:04;;;;;;;1999.90;999.90;;;15.50;99.90;;;;;;4923704;29;20496;-77
2022/05/16 04:40:30;;;;;;;1999.90;999.90;;;15.50;99.90;;;;;;4920400;29;20028;-82
2022/05/16 04:42:57;;;;;;;1999.90;999.90;;;15.60;99.90;;;;;;4920254;29;20028;-77
2022/05/16 04:45:27;;;;;;;1999.90;999.90;;;15.60;99.90;;;;;;4917795;29;20416;-81
2022/05/16 04:47:58;;;;;;;1999.90;999.90;;;15.60;99.90;;;;;;4921050;29;20491;-77
2022/05/16 04:50:29;;;;;;;1999.90;999.90;;;15.60;99.90;;;;;;4919485;29;20024;-82
2022/05/16 04:52:56;;;;;;;1999.90;999.90;;;15.60;99.90;;;;;;4917421;29;20044;-77
2022/05/16 04:55:26;;;;;;;1999.90;999.90;;;15.70;99.90;;;;;;4915725;29;20131;-77
2022/05/16 04:57:51;;;;;;;1999.90;999.90;;;15.70;99.90;;;;;;4917334;29;20514;-82
2022/05/16 05:00:19;;;;;;;1999.90;999.90;;;15.70;99.90;;;;;;4904387;29;20107;-77
2022/05/16 05:02:45;;;;;;;1999.90;999.90;;;15.70;99.90;;;;;;4917660;29;20123;-78
2022/05/16 05:05:12;;;;;;;1999.90;999.90;;;15.80;99.90;;;;;;4904464;29;20500;-77
2022/05/16 05:07:39;;;;;;;1999.90;999.90;;;15.80;99.90;;;;;;4916370;29;20025;-78
2022/05/16 05:15:36;;;;;;;1999.90;999.90;;;15.90;99.90;;;;;;4913493;29;20464;-82
2022/05/16 05:18:03;;;;;;;1999.90;999.90;;;15.90;99.90;;;;;;4915614;29;20028;-77
2022/05/16 05:20:29;;;;;;;1999.90;999.90;;;16.00;99.90;;;;;;4917657;29;20507;-77
2022/05/16 05:22:55;;;;;;;1999.90;999.90;;;16.00;99.90;;;;;;4915749;29;20131;-77
2022/05/16 05:25:21;;;;;;;1999.90;999.90;;;16.10;99.90;;;;;;4913638;29;20028;-77
2022/05/16 05:27:51;;;;;;;1999.90;999.90;;;16.10;99.90;;;;;;4921688;29;20124;-82
2022/05/16 05:30:23;;;;;;;1999.90;999.90;;;16.20;99.90;;;;;;4914760;29;20036;-77
2022/05/16 05:32:49;;;;;;;1999.90;999.90;;;16.30;99.90;;;;;;4915424;29;20483;-77
2022/05/16 05:35:16;;;;;;;1999.90;999.90;;;16.30;99.90;;;;;;4914965;29;20036;-77
2022/05/16 05:37:43;;;;;;;1999.90;999.90;;;16.50;99.90;;;;;;4917336;29;20031;-82
2022/05/16 05:40:09;;;;;;;1999.90;999.90;;;16.60;99.90;;;;;;4915142;29;20048;-78
2022/05/16 05:42:35;;;;;;;1999.90;999.90;;;16.60;99.90;;;;;;4920405;29;20028;-79
2022/05/16 05:45:02;;;;;;;1999.90;999.90;;;16.70;99.90;;;;;;4917290;29;20035;-77
2022/05/16 05:47:28;;;;;;;1999.90;999.90;;;16.60;99.90;;;;;;4917239;29;20039;-82
2022/05/16 05:49:54;;;;;;;1999.90;999.90;;;16.60;99.90;;;;;;4919694;29;20032;-77
2022/05/16 05:52:20;;;;;;;1999.90;999.90;;;16.60;99.90;;;;;;4915436;29;20036;-82
2022/05/16 05:54:47;;;;;;;1999.90;999.90;;;16.70;99.90;;;;;;4913929;29;20534;-81
2022/05/16 05:57:16;;;;;;;1999.90;999.90;;;16.80;99.90;;;;;;4910227;29;20044;-82
2022/05/16 05:59:42;;;;;;;1999.90;999.90;;;16.70;99.90;;;;;;4911627;29;20123;-82
2022/05/16 06:02:08;;;;;;;1999.90;999.90;;;16.80;99.90;;;;;;4923386;29;20056;-82
2022/05/16 06:04:34;;;;;;;1999.90;999.90;;;16.90;99.90;;;;;;4920531;29;20131;-82
2022/05/16 06:07:00;;;;;;;1999.90;999.90;;;16.90;99.90;;;;;;4913814;29;20118;-82
2022/05/16 06:09:27;;;;;;;1999.90;999.90;;;16.90;99.90;;;;;;4915386;29;20490;-78
2022/05/16 06:11:53;;;;;;;1999.90;999.90;;;17.00;99.90;;;;;;4929879;29;20475;-82
2022/05/16 06:14:18;;;;;;;1999.90;999.90;;;17.10;99.90;;;;;;4915032;29;20080;-82
2022/05/16 06:16:47;;;;;;;1999.90;999.90;;;17.30;99.90;;;;;;4919079;29;20032;-78
2022/05/16 06:19:13;;;;;;;1999.90;999.90;;;17.30;99.90;;;;;;4915592;29;20043;-78
2022/05/16 06:21:39;;;;;;;1999.90;999.90;;;17.40;99.90;;;;;;4908303;29;20048;-82
2022/05/16 06:25:31;;;;;;;1999.90;999.90;;;17.50;99.90;;;;;;4901408;29;20076;-78
2022/05/16 06:26:51;;;;;;;1999.90;999.90;;;17.50;99.90;;;;;;4922960;29;20106;-78
2022/05/16 06:29:17;;;;;;;1999.90;999.90;;;17.60;99.90;;;;;;4930577;29;20502;-78
2022/05/16 06:31:42;;;;;;;1999.90;999.90;;;17.60;99.90;;;;;;4906873;29;20035;-78
2022/05/16 06:34:08;;;;;;;1999.90;999.90;;;17.60;99.90;;;;;;4912565;29;20032;-78
2022/05/16 06:36:34;;;;;;;1999.90;999.90;;;17.70;99.90;;;;;;4916392;29;20040;-78
2022/05/16 06:39:00;;;;;;;1999.90;999.90;;;17.80;99.90;;;;;;4923435;29;20047;-83
2022/05/16 06:41:25;;;;;;;1999.90;999.90;;;17.80;99.90;;;;;;4919328;29;20168;-82
2022/05/16 06:43:51;;;;;;;1999.90;999.90;;;17.90;99.90;;;;;;4919023;29;20039;-83
2022/05/16 06:46:20;;;;;;;1999.90;999.90;;;17.90;99.90;;;;;;4912872;29;20043;-78
2022/05/16 06:48:45;;;;;;;1999.90;999.90;;;17.80;99.90;;;;;;4920523;29;20394;-78
2022/05/16 06:51:11;;;;;;;1999.90;999.90;;;17.90;99.90;;;;;;4920438;29;20048;-82
2022/05/16 06:53:36;;;;;;;1999.90;999.90;;;17.90;99.90;;;;;;4921561;29;20052;-80
2022/05/16 06:56:04;;;;;;;1999.90;999.90;;;18.00;99.90;;;;;;4914731;29;20044;-83
2022/05/16 06:58:29;;;;;;;1999.90;999.90;;;18.10;99.90;;;;;;4917215;29;20024;-82
2022/05/16 07:00:56;;;;;;;1999.90;999.90;;;18.10;99.90;;;;;;4912658;29;20089;-82
2022/05/16 07:03:22;;;;;;;1999.90;999.90;;;18.20;99.90;;;;;;4919545;29;20020;-78
2022/05/16 07:05:49;;;;;;;1999.90;999.90;;;18.30;99.90;;;;;;4915948;29;20034;-81
2022/05/16 07:08:16;;;;;;;1999.90;999.90;;;18.50;99.90;;;;;;4914781;29;20032;-81
2022/05/16 07:10:42;;;;;;;1999.90;999.90;;;18.60;99.90;;;;;;4929182;29;20024;-78
2022/05/16 07:13:08;;;;;;;1999.90;999.90;;;18.70;99.90;;;;;;4917965;29;20047;-84
2022/05/16 07:15:34;;;;;;;1999.90;999.90;;;18.70;99.90;;;;;;4920266;29;20043;-78
2022/05/16 07:18:00;;;;;;;1999.90;999.90;;;18.70;99.90;;;;;;4912009;29;20070;-78
2022/05/16 07:20:37;;;;;;;1999.90;999.90;;;18.90;99.90;;;;;;4920109;29;20059;-83
2022/05/16 07:23:03;;;;;;;1999.90;999.90;;;19.00;99.90;;;;;;4915992;29;20080;-83
2022/05/16 07:25:32;;;;;;;1999.90;999.90;;;19.10;99.90;;;;;;4917663;29;20035;-82
2022/05/16 07:27:59;;;;;;;1999.90;999.90;;;19.20;99.90;;;;;;4908464;29;20031;-82
2022/05/16 07:30:27;;;;;;;1999.90;999.90;;;19.30;99.90;;;;;;4912661;29;20273;-81
2022/05/16 07:32:54;;;;;;;1999.90;999.90;;;19.50;99.90;;;;;;4914485;29;20032;-81
2022/05/16 07:35:25;;;;;;;1999.90;999.90;;;19.70;99.90;;;;;;4912908;29;20028;-82
2022/05/16 07:37:53;;;;;;;1999.90;999.90;;;20.10;99.90;;;;;;4915956;29;20025;-80
2022/05/16 07:40:21;;;;;;;1999.90;999.90;;;21.20;99.90;;;;;;4918321;29;20028;-79
2022/05/16 07:42:48;;;;;;;1999.90;999.90;;;23.70;99.90;;;;;;4916877;29;20016;-82
2022/05/16 07:45:14;;;;;;;1999.90;999.90;;;25.90;99.30;;;;;;4917214;29;20052;-80
2022/05/16 07:47:39;;;;;;;1999.90;999.90;;;27.20;95.30;;;;;;4919212;29;20108;-81
2022/05/16 07:50:07;;;;;;;1999.90;999.90;;;28.10;93.90;;;;;;4921007;29;20073;-80
2022/05/16 07:52:33;;;;;;;1999.90;999.90;;;28.90;93.20;;;;;;4914206;29;20068;-78
2022/05/16 07:54:59;;;;;;;1999.90;999.90;;;29.20;91.60;;;;;;4922344;29;20067;-78
2022/05/16 07:57:25;;;;;;;1999.90;999.90;;;29.10;91.50;;;;;;4915336;29;20028;-79
2022/05/16 07:59:51;;;;;;;1999.90;999.90;;;29.20;90.70;;;;;;4925852;29;20140;-79
2022/05/16 08:02:17;;;;;;;1999.90;999.90;;;29.60;89.90;;;;;;4915256;29;20380;-79
2022/05/16 08:04:43;;;;;;;1999.90;999.90;;;29.60;89.70;;;;;;4915942;29;20084;-81
2022/05/16 08:07:09;;;;;;;1999.90;999.90;;;29.90;90.20;;;;;;4920766;29;20388;-82
2022/05/16 08:12:28;;;;;;;1999.90;999.90;;;30.20;87.60;;;;;;4921577;29;20059;-83
2022/05/16 08:14:54;;;;;;;1999.90;999.90;;;31.10;86.10;;;;;;4922786;29;20035;-84
2022/05/16 08:17:20;;;;;;;1999.90;999.90;;;31.00;85.70;;;;;;4924207;29;20495;-84
2022/05/16 08:19:46;;;;;;;1999.90;999.90;;;31.30;84.10;;;;;;4923568;29;20514;-81
2022/05/16 08:22:12;;;;;;;1999.90;999.90;;;31.80;84.10;;;;;;4919305;29;20016;-84
2022/05/16 08:24:38;;;;;;;1999.90;999.90;;;32.40;83.00;;;;;;4931766;29;20398;-80
2022/05/16 08:27:04;;;;;;;1999.90;999.90;;;31.90;81.00;;;;;;4916574;29;20480;-83
2022/05/16 08:29:31;;;;;;;1999.90;999.90;;;31.60;82.20;;;;;;4916173;29;20115;-82
2022/05/16 08:31:57;;;;;;;1999.90;999.90;;;32.50;81.40;;;;;;4923221;29;20036;-82
2022/05/16 08:34:23;;;;;;;1999.90;999.90;;;32.60;81.30;;;;;;4904455;29;20016;-81
2022/05/16 08:42:25;;;;;;;1999.90;999.90;;;33.20;78.50;;;;;;4916578;29;20039;-83
2022/05/16 08:45:00;;;;;;;1999.90;999.90;;;33.10;78.60;;;;;;4920291;29;20513;-85
2022/05/16 08:47:42;;;;;;;1999.90;999.90;;;33.30;77.80;;;;;;4915401;29;20098;-82
2022/05/16 08:50:18;;;;;;;1999.90;999.90;;;33.90;77.60;;;;;;4923678;29;20028;-82
2022/05/16 08:53:05;;;;;;;1999.90;999.90;;;33.90;77.70;;;;;;4916271;29;20032;-83
2022/05/16 08:55:52;;;;;;;1999.90;999.90;;;33.30;77.20;;;;;;4911182;29;20043;-81
2022/05/16 08:58:29;;;;;;;1999.90;999.90;;;33.40;77.90;;;;;;4910378;29;20448;-82
2022/05/16 09:00:59;;;;;;;1999.90;999.90;;;32.70;77.40;;;;;;4917961;29;20031;-83
2022/05/16 09:03:38;;;;;;;1999.90;999.90;;;32.80;78.20;;;;;;4920168;29;20032;-82
2022/05/16 09:06:12;;;;;;;1999.90;999.90;;;33.50;76.20;;;;;;4918316;29;20419;-82
2022/05/16 09:08:49;;;;;;;1999.90;999.90;;;33.10;77.30;;;;;;4917201;29;20082;-83
2022/05/16 09:11:35;;;;;;;1999.90;999.90;;;33.90;77.00;;;;;;4921494;29;20032;-81
2022/05/16 09:14:06;;;;;;;1999.90;999.90;;;33.70;76.10;;;;;;4912456;29;20520;-83
2022/05/16 09:16:47;;;;;;;1999.90;999.90;;;33.70;75.40;;;;;;4914302;29;20372;-83
2022/05/16 09:19:39;;;;;;;1999.90;999.90;;;33.40;75.30;;;;;;4910462;29;20032;-82
2022/05/16 09:22:32;;;;;;;1999.90;999.90;;;33.80;75.80;;;;;;4915780;29;20046;-82
2022/05/16 09:25:13;;;;;;;1999.90;999.90;;;34.30;75.20;;;;;;4917041;29;20032;-79
2022/05/16 09:30:28;;;;;;;1999.90;999.90;;;34.60;74.20;;;;;;4911386;29;20043;-83
2022/05/16 09:33:00;;;;;;;1999.90;999.90;;;34.10;73.70;;;;;;4912270;29;20032;-84
2022/05/16 09:36:00;;;;;;;1999.90;999.90;;;33.70;74.20;;;;;;4911928;29;20397;-82
2022/05/16 09:38:25;;;;;;;1999.90;999.90;;;32.90;75.20;;;;;;4912434;29;20024;-82
2022/05/16 09:41:03;;;;;;;1999.90;999.90;;;32.40;76.10;;;;;;4913920;29;20039;-82
2022/05/16 09:43:41;;;;;;;1999.90;999.90;;;33.30;75.20;;;;;;4917869;29;20032;-83
2022/05/16 09:46:43;;;;;;;1999.90;999.90;;;33.60;74.80;;;;;;4917075;29;20039;-83
2022/05/16 09:49:18;;;;;;;1999.90;999.90;;;34.30;73.40;;;;;;4913966;29;20048;-82
2022/05/16 09:51:49;;;;;;;1999.90;999.90;;;34.10;74.40;;;;;;4919424;29;20400;-79
2022/05/16 09:54:25;;;;;;;1999.90;999.90;;;34.10;73.70;;;;;;4922745;29;20137;-80
2022/05/16 09:57:03;;;;;;;1999.90;999.90;;;34.40;73.20;;;;;;4925387;29;20047;-82
2022/05/16 09:59:38;;;;;;;1999.90;999.90;;;34.50;72.50;;;;;;4914457;29;20024;-82
2022/05/16 10:02:18;;;;;;;1999.90;999.90;;;34.10;73.50;;;;;;4917945;29;20031;-82
2022/05/16 10:04:46;;;;;;;1999.90;999.90;;;34.00;74.00;;;;;;4914788;29;20103;-81
2022/05/16 10:07:13;;;;;;;1999.90;999.90;;;33.50;73.10;;;;;;4917137;29;20032;-80
2022/05/16 10:09:50;;;;;;;1999.90;999.90;;;32.80;73.50;;;;;;4913543;29;20645;-84
2022/05/16 10:12:20;;;;;;;1999.90;999.90;;;32.50;73.70;;;;;;4909960;29;20087;-82
2022/05/16 10:14:46;;;;;;;1999.90;999.90;;;32.30;73.40;;;;;;4918008;29;20044;-83
2022/05/16 10:17:27;;;;;;;1999.90;999.90;;;32.40;74.00;;;;;;4920575;29;20474;-81
2022/05/16 10:19:59;;;;;;;1999.90;999.90;;;32.50;73.20;;;;;;4912503;29;20023;-80
2022/05/16 10:22:25;;;;;;;1999.90;999.90;;;33.50;72.20;;;;;;4918751;29;20169;-80
2022/05/16 10:24:54;;;;;;;1999.90;999.90;;;33.60;72.00;;;;;;4916938;29;20020;-80
2022/05/16 10:27:32;;;;;;;1999.90;999.90;;;32.90;72.00;;;;;;4909598;29;20075;-81
2022/05/16 10:30:07;;;;;;;1999.90;999.90;;;32.70;72.80;;;;;;4908565;29;20039;-82
2022/05/16 10:35:32;;;;;;;1999.90;999.90;;;31.60;72.90;;;;;;4910773;29;20524;-82
2022/05/16 10:38:02;;;;;;;1999.90;999.90;;;31.50;73.80;;;;;;4919070;29;20039;-82
2022/05/16 10:40:45;;;;;;;1999.90;999.90;;;31.90;73.40;;;;;;4915584;29;20103;-84
2022/05/16 10:43:29;;;;;;;1999.90;999.90;;;32.00;74.60;;;;;;4920604;29;20391;-79
2022/05/16 10:46:02;;;;;;;1999.90;999.90;;;32.50;73.20;;;;;;4919217;29;20027;-80
2022/05/16 10:48:39;;;;;;;1999.90;999.90;;;32.30;73.50;;;;;;4918177;29;20036;-81
2022/05/16 10:51:13;;;;;;;1999.90;999.90;;;32.20;74.20;;;;;;4915912;29;20203;-79
2022/05/16 10:53:50;;;;;;;1999.90;999.90;;;31.70;74.00;;;;;;4917902;29;20565;-77
2022/05/16 10:56:40;;;;;;;1999.90;999.90;;;31.90;74.50;;;;;;4908879;29;20139;-80
2022/05/16 10:59:20;;;;;;;1999.90;999.90;;;32.40;73.70;;;;;;4917870;29;20032;-80
2022/05/16 11:01:59;;;;;;;1999.90;999.90;;;32.50;74.60;;;;;;4914648;29;20052;-79
2022/05/16 11:04:50;;;;;;;1999.90;999.90;;;31.40;73.80;;;;;;4915255;29;20045;-78
2022/05/16 11:07:40;;;;;;;1999.90;999.90;;;31.50;75.60;;;;;;4910292;29;20060;-78
2022/05/16 11:10:31;;;;;;;1999.90;999.90;;;31.40;75.50;;;;;;4909622;29;20043;-77
2022/05/16 11:13:15;;;;;;;1999.90;999.90;;;31.00;75.80;;;;;;4906955;29;20050;-78
2022/05/16 11:15:48;;;;;;;1999.90;999.90;;;31.30;75.50;;;;;;4913012;29;20443;-77
2022/05/16 11:18:41;;;;;;;1999.90;999.90;;;31.10;75.70;;;;;;4917263;29;20040;-78
2022/05/16 11:21:41;;;;;;;1999.90;999.90;;;30.80;76.80;;;;;;4910825;29;20155;-77
2022/05/16 11:24:42;;;;;;;1999.90;999.90;;;29.80;78.60;;;;;;4917548;29;20167;-76
2022/05/16 11:27:30;;;;;;;1999.90;999.90;;;28.60;79.40;;;;;;4914761;29;20063;-76
2022/05/16 11:30:05;;;;;;;1999.90;999.90;;;28.40;81.50;;;;;;4910447;29;20029;-78
2022/05/16 11:32:40;;;;;;;1999.90;999.90;;;28.80;80.70;;;;;;4934632;29;20467;-78
2022/05/16 11:35:09;;;;;;;1999.90;999.90;;;29.10;79.40;;;;;;4913722;29;20032;-76
2022/05/16 11:38:09;;;;;;;1999.90;999.90;;;28.90;80.80;;;;;;4916818;29;20411;-78
2022/05/16 11:40:37;;;;;;;1999.90;999.90;;;29.00;80.80;;;;;;4916407;29;20432;-79
2022/05/16 11:43:14;;;;;;;1999.90;999.90;;;29.30;80.80;;;;;;4909786;29;20036;-78
2022/05/16 11:46:09;;;;;;;1999.90;999.90;;;29.40;80.70;;;;;;4912456;29;20028;-76
2022/05/16 11:48:49;;;;;;;1999.90;999.90;;;29.60;81.60;;;;;;4917521;29;20458;-75
2022/05/16 11:51:26;;;;;;;1999.90;999.90;;;29.50;81.40;;;;;;4914138;29;20157;-76
2022/05/16 11:53:57;;;;;;;1999.90;999.90;;;29.60;80.90;;;;;;4909014;29;20080;-77
2022/05/16 12:02:35;;;;;;;1999.90;999.90;;;29.70;82.30;;;;;;4910224;29;20510;-77
2022/05/16 12:05:01;;;;;;;1999.90;999.90;;;29.40;82.40;;;;;;4915866;29;20111;-79
2022/05/16 12:07:36;;;;;;;1999.90;999.90;;;29.40;82.90;;;;;;4914444;29;20507;-79
2022/05/16 12:10:22;;;;;;;1999.90;999.90;;;29.20;82.90;;;;;;4913586;29;20037;-78
2022/05/16 12:13:18;;;;;;;1999.90;999.90;;;29.20;83.00;;;;;;4913568;29;20457;-79
2022/05/16 12:15:46;;;;;;;1999.90;999.90;;;29.40;83.30;;;;;;4919884;29;20521;-79
2022/05/16 12:18:35;;;;;;;1999.90;999.90;;;29.80;82.90;;;;;;4919354;29;20028;-78
2022/05/16 12:21:09;;;;;;;1999.90;999.90;;;29.30;83.50;;;;;;4914125;29;20111;-79
2022/05/16 12:23:49;;;;;;;1999.90;999.90;;;28.80;83.70;;;;;;4915230;29;20036;-78
2022/05/16 12:26:27;;;;;;;1999.90;999.90;;;28.70;85.00;;;;;;4908841;29;20042;-80
2022/05/16 12:29:23;;;;;;;1999.90;999.90;;;28.80;85.50;;;;;;4913600;29;20112;-77
2022/05/16 12:31:51;;;;;;;1999.90;999.90;;;29.40;85.20;;;;;;4916469;29;20468;-79
2022/05/16 12:34:29;;;;;;;1999.90;999.90;;;29.40;85.60;;;;;;4926342;29;20068;-78
2022/05/16 12:36:56;;;;;;;1999.90;999.90;;;28.50;86.40;;;;;;4933542;29;20023;-81
2022/05/16 12:39:37;;;;;;;1999.90;999.90;;;28.20;87.80;;;;;;4913313;29;20039;-82
2022/05/16 12:42:21;;;;;;;1999.90;999.90;;;28.20;86.90;;;;;;4911338;29;20516;-80
2022/05/16 12:44:57;;;;;;;1999.90;999.90;;;28.30;88.40;;;;;;4908931;29;20104;-80
2022/05/16 12:47:48;;;;;;;1999.90;999.90;;;28.40;87.30;;;;;;4913527;29;20055;-79
2022/05/16 12:50:58;;;;;;;1999.90;999.90;;;28.40;87.80;;;;;;4913499;29;20039;-78